sensor_id;sensor_type;location;lat;lon;timestamp;P1;durP1;ratioP1;P2;durP2;ratioP2
21122;SDS011;10719;48.130;11.630;2024-02-28T00:02:05;22.60;;;10.98;;
21122;SDS011;10719;48.130;11.630;2024-02-28T00:04:30;27.52;;;12.95;;
21122;SDS011;10719;48.130;11.630;2024-02-28T00:06:56;23.15;;;11.43;;
21122;SDS011;10719;48.130;11.630;2024-02-28T00:09:22;22.35;;;10.77;;
21122;SDS011;10719;48.130;11.630;2024-02-28T00:11:47;25.63;;;12.52;;
21122;SDS011;10719;48.130;11.630;2024-02-28T00:14:13;26.25;;;11.88;;
21122;SDS011;10719;48.130;11.630;2024-02-28T00:16:42;26.00;;;13.23;;
21122;SDS011;10719;48.130;11.630;2024-02-28T00:19:09;32.17;;;13.10;;
21122;SDS011;10719;48.130;11.630;2024-02-28T00:21:36;26.33;;;12.70;;
21122;SDS011;10719;48.130;11.630;2024-02-28T00:24:02;27.63;;;12.27;;
21122;SDS011;10719;48.130;11.630;2024-02-28T00:26:28;24.05;;;11.73;;
21122;SDS011;10719;48.130;11.630;2024-02-28T00:28:53;28.23;;;13.45;;
21122;SDS011;10719;48.130;11.630;2024-02-28T00:31:19;22.38;;;11.50;;
21122;SDS011;10719;48.130;11.630;2024-02-28T00:33:46;26.70;;;13.80;;
21122;SDS011;10719;48.130;11.630;2024-02-28T00:36:12;22.60;;;11.85;;
21122;SDS011;10719;48.130;11.630;2024-02-28T00:38:38;23.88;;;11.68;;
21122;SDS011;10719;48.130;11.630;2024-02-28T00:41:03;22.83;;;12.50;;
21122;SDS011;10719;48.130;11.630;2024-02-28T00:43:29;22.88;;;11.57;;
21122;SDS011;10719;48.130;11.630;2024-02-28T00:45:54;25.63;;;12.70;;
21122;SDS011;10719;48.130;11.630;2024-02-28T00:48:20;23.40;;;12.02;;
21122;SDS011;10719;48.130;11.630;2024-02-28T00:50:47;25.20;;;11.77;;
21122;SDS011;10719;48.130;11.630;2024-02-28T00:53:12;24.35;;;11.98;;
21122;SDS011;10719;48.130;11.630;2024-02-28T00:55:38;26.40;;;13.52;;
21122;SDS011;10719;48.130;11.630;2024-02-28T00:58:03;29.88;;;13.02;;
21122;SDS011;10719;48.130;11.630;2024-02-28T01:00:29;28.05;;;13.05;;
21122;SDS011;10719;48.130;11.630;2024-02-28T01:02:55;28.30;;;12.93;;
21122;SDS011;10719;48.130;11.630;2024-02-28T01:05:20;26.52;;;13.07;;
21122;SDS011;10719;48.130;11.630;2024-02-28T01:07:46;24.13;;;12.57;;
21122;SDS011;10719;48.130;11.630;2024-02-28T01:10:12;26.60;;;13.07;;
21122;SDS011;10719;48.130;11.630;2024-02-28T01:12:37;22.15;;;11.10;;
21122;SDS011;10719;48.130;11.630;2024-02-28T01:15:03;22.42;;;12.00;;
21122;SDS011;10719;48.130;11.630;2024-02-28T01:17:29;24.58;;;12.40;;
21122;SDS011;10719;48.130;11.630;2024-02-28T01:19:55;25.85;;;12.55;;
21122;SDS011;10719;48.130;11.630;2024-02-28T01:22:21;25.40;;;12.40;;
21122;SDS011;10719;48.130;11.630;2024-02-28T01:24:47;26.30;;;12.40;;
21122;SDS011;10719;48.130;11.630;2024-02-28T01:27:12;28.02;;;13.60;;
21122;SDS011;10719;48.130;11.630;2024-02-28T01:29:38;23.90;;;12.38;;
21122;SDS011;10719;48.130;11.630;2024-02-28T01:32:04;22.90;;;12.50;;
21122;SDS011;10719;48.130;11.630;2024-02-28T01:34:29;27.15;;;13.55;;
21122;SDS011;10719;48.130;11.630;2024-02-28T01:36:55;27.77;;;13.32;;
21122;SDS011;10719;48.130;11.630;2024-02-28T01:39:20;27.83;;;12.98;;
21122;SDS011;10719;48.130;11.630;2024-02-28T01:41:53;24.35;;;12.90;;
21122;SDS011;10719;48.130;11.630;2024-02-28T01:44:19;27.10;;;12.57;;
21122;SDS011;10719;48.130;11.630;2024-02-28T01:46:45;28.20;;;13.30;;
21122;SDS011;10719;48.130;11.630;2024-02-28T01:49:11;25.52;;;12.75;;
21122;SDS011;10719;48.130;11.630;2024-02-28T01:51:38;26.00;;;12.60;;
21122;SDS011;10719;48.130;11.630;2024-02-28T01:54:04;25.92;;;12.60;;
21122;SDS011;10719;48.130;11.630;2024-02-28T01:56:31;24.05;;;12.23;;
21122;SDS011;10719;48.130;11.630;2024-02-28T01:58:57;23.20;;;12.07;;
21122;SDS011;10719;48.130;11.630;2024-02-28T02:01:23;26.23;;;12.65;;
21122;SDS011;10719;48.130;11.630;2024-02-28T02:03:48;28.88;;;12.65;;
21122;SDS011;10719;48.130;11.630;2024-02-28T02:06:14;25.25;;;13.00;;
21122;SDS011;10719;48.130;11.630;2024-02-28T02:08:40;27.80;;;12.57;;
21122;SDS011;10719;48.130;11.630;2024-02-28T02:11:06;27.63;;;12.30;;
21122;SDS011;10719;48.130;11.630;2024-02-28T02:13:32;25.92;;;12.75;;
21122;SDS011;10719;48.130;11.630;2024-02-28T02:15:57;26.40;;;12.52;;
21122;SDS011;10719;48.130;11.630;2024-02-28T02:18:23;26.90;;;13.82;;
21122;SDS011;10719;48.130;11.630;2024-02-28T02:20:49;26.73;;;13.65;;
21122;SDS011;10719;48.130;11.630;2024-02-28T02:23:17;25.98;;;12.77;;
21122;SDS011;10719;48.130;11.630;2024-02-28T02:25:47;25.98;;;12.05;;
21122;SDS011;10719;48.130;11.630;2024-02-28T02:28:13;28.63;;;14.20;;
21122;SDS011;10719;48.130;11.630;2024-02-28T02:30:39;28.15;;;14.85;;
21122;SDS011;10719;48.130;11.630;2024-02-28T02:33:06;27.60;;;13.75;;
21122;SDS011;10719;48.130;11.630;2024-02-28T02:35:33;27.55;;;13.68;;
21122;SDS011;10719;48.130;11.630;2024-02-28T02:37:59;29.95;;;13.90;;
21122;SDS011;10719;48.130;11.630;2024-02-28T02:40:25;28.52;;;13.63;;
21122;SDS011;10719;48.130;11.630;2024-02-28T02:42:50;26.52;;;13.60;;
21122;SDS011;10719;48.130;11.630;2024-02-28T02:45:16;30.95;;;14.15;;
21122;SDS011;10719;48.130;11.630;2024-02-28T02:47:42;30.13;;;15.40;;
21122;SDS011;10719;48.130;11.630;2024-02-28T02:50:10;31.30;;;14.48;;
21122;SDS011;10719;48.130;11.630;2024-02-28T02:52:36;26.55;;;13.63;;
21122;SDS011;10719;48.130;11.630;2024-02-28T02:55:02;28.38;;;14.38;;
21122;SDS011;10719;48.130;11.630;2024-02-28T02:57:27;30.33;;;14.80;;
21122;SDS011;10719;48.130;11.630;2024-02-28T02:59:55;32.83;;;16.55;;
21122;SDS011;10719;48.130;11.630;2024-02-28T03:02:21;29.52;;;14.68;;
21122;SDS011;10719;48.130;11.630;2024-02-28T03:04:47;31.08;;;14.50;;
21122;SDS011;10719;48.130;11.630;2024-02-28T03:07:12;30.60;;;13.52;;
21122;SDS011;10719;48.130;11.630;2024-02-28T03:09:38;33.13;;;14.75;;
21122;SDS011;10719;48.130;11.630;2024-02-28T03:12:03;30.38;;;14.35;;
21122;SDS011;10719;48.130;11.630;2024-02-28T03:14:29;27.48;;;14.45;;
21122;SDS011;10719;48.130;11.630;2024-02-28T03:16:54;30.88;;;13.52;;
21122;SDS011;10719;48.130;11.630;2024-02-28T03:19:20;28.30;;;14.73;;
21122;SDS011;10719;48.130;11.630;2024-02-28T03:21:47;28.90;;;14.95;;
21122;SDS011;10719;48.130;11.630;2024-02-28T03:24:12;34.90;;;15.68;;
21122;SDS011;10719;48.130;11.630;2024-02-28T03:26:38;29.02;;;14.48;;
21122;SDS011;10719;48.130;11.630;2024-02-28T03:29:03;30.15;;;14.52;;
21122;SDS011;10719;48.130;11.630;2024-02-28T03:31:29;31.08;;;14.82;;
21122;SDS011;10719;48.130;11.630;2024-02-28T03:33:54;30.95;;;15.43;;
21122;SDS011;10719;48.130;11.630;2024-02-28T03:36:20;28.33;;;14.23;;
21122;SDS011;10719;48.130;11.630;2024-02-28T03:38:45;29.33;;;15.57;;
21122;SDS011;10719;48.130;11.630;2024-02-28T03:41:11;32.60;;;15.95;;
21122;SDS011;10719;48.130;11.630;2024-02-28T03:43:37;32.53;;;15.60;;
21122;SDS011;10719;48.130;11.630;2024-02-28T03:46:02;30.88;;;14.95;;
21122;SDS011;10719;48.130;11.630;2024-02-28T03:48:28;36.35;;;16.98;;
21122;SDS011;10719;48.130;11.630;2024-02-28T03:50:53;29.67;;;14.27;;
21122;SDS011;10719;48.130;11.630;2024-02-28T03:53:19;33.63;;;16.27;;
21122;SDS011;10719;48.130;11.630;2024-02-28T03:55:45;29.75;;;15.13;;
21122;SDS011;10719;48.130;11.630;2024-02-28T03:58:11;29.63;;;15.02;;
21122;SDS011;10719;48.130;11.630;2024-02-28T04:00:37;30.48;;;14.52;;
21122;SDS011;10719;48.130;11.630;2024-02-28T04:03:03;30.02;;;14.50;;
21122;SDS011;10719;48.130;11.630;2024-02-28T04:05:30;29.17;;;14.73;;
21122;SDS011;10719;48.130;11.630;2024-02-28T04:07:56;35.42;;;16.25;;
21122;SDS011;10719;48.130;11.630;2024-02-28T04:10:22;29.90;;;14.75;;
21122;SDS011;10719;48.130;11.630;2024-02-28T04:12:47;35.15;;;16.42;;
21122;SDS011;10719;48.130;11.630;2024-02-28T04:15:13;32.53;;;14.55;;
21122;SDS011;10719;48.130;11.630;2024-02-28T04:17:39;27.00;;;14.35;;
21122;SDS011;10719;48.130;11.630;2024-02-28T04:20:14;31.95;;;14.07;;
21122;SDS011;10719;48.130;11.630;2024-02-28T04:22:40;29.15;;;14.23;;
21122;SDS011;10719;48.130;11.630;2024-02-28T04:25:07;33.22;;;16.08;;
21122;SDS011;10719;48.130;11.630;2024-02-28T04:27:34;31.67;;;14.48;;
21122;SDS011;10719;48.130;11.630;2024-02-28T04:30:00;30.60;;;14.93;;
21122;SDS011;10719;48.130;11.630;2024-02-28T04:32:26;30.40;;;14.82;;
21122;SDS011;10719;48.130;11.630;2024-02-28T04:34:52;34.55;;;16.00;;
21122;SDS011;10719;48.130;11.630;2024-02-28T04:37:17;30.30;;;14.50;;
21122;SDS011;10719;48.130;11.630;2024-02-28T04:39:43;34.22;;;15.20;;
21122;SDS011;10719;48.130;11.630;2024-02-28T04:42:08;34.30;;;15.73;;
21122;SDS011;10719;48.130;11.630;2024-02-28T04:44:34;29.95;;;16.00;;
21122;SDS011;10719;48.130;11.630;2024-02-28T04:46:59;31.92;;;15.70;;
21122;SDS011;10719;48.130;11.630;2024-02-28T04:49:26;36.25;;;16.73;;
21122;SDS011;10719;48.130;11.630;2024-02-28T04:51:52;31.73;;;15.80;;
21122;SDS011;10719;48.130;11.630;2024-02-28T04:54:17;31.88;;;14.98;;
21122;SDS011;10719;48.130;11.630;2024-02-28T04:56:43;34.75;;;16.77;;
21122;SDS011;10719;48.130;11.630;2024-02-28T04:59:11;29.67;;;15.95;;
21122;SDS011;10719;48.130;11.630;2024-02-28T05:01:37;35.28;;;15.95;;
21122;SDS011;10719;48.130;11.630;2024-02-28T05:04:10;35.83;;;16.38;;
21122;SDS011;10719;48.130;11.630;2024-02-28T05:06:36;34.00;;;16.58;;
21122;SDS011;10719;48.130;11.630;2024-02-28T05:09:02;33.97;;;16.20;;
21122;SDS011;10719;48.130;11.630;2024-02-28T05:11:27;30.90;;;15.57;;
21122;SDS011;10719;48.130;11.630;2024-02-28T05:13:53;35.90;;;15.75;;
21122;SDS011;10719;48.130;11.630;2024-02-28T05:16:19;33.55;;;16.45;;
21122;SDS011;10719;48.130;11.630;2024-02-28T05:18:44;35.28;;;16.55;;
21122;SDS011;10719;48.130;11.630;2024-02-28T05:21:11;33.00;;;16.40;;
21122;SDS011;10719;48.130;11.630;2024-02-28T05:23:36;36.08;;;16.77;;
21122;SDS011;10719;48.130;11.630;2024-02-28T05:26:02;41.60;;;15.07;;
21122;SDS011;10719;48.130;11.630;2024-02-28T05:28:35;33.17;;;15.27;;
21122;SDS011;10719;48.130;11.630;2024-02-28T05:31:02;40.95;;;17.02;;
21122;SDS011;10719;48.130;11.630;2024-02-28T05:33:43;33.85;;;15.43;;
21122;SDS011;10719;48.130;11.630;2024-02-28T05:36:09;31.35;;;15.73;;
21122;SDS011;10719;48.130;11.630;2024-02-28T05:38:35;31.48;;;15.80;;
21122;SDS011;10719;48.130;11.630;2024-02-28T05:41:00;33.25;;;16.35;;
21122;SDS011;10719;48.130;11.630;2024-02-28T05:43:26;32.80;;;15.55;;
21122;SDS011;10719;48.130;11.630;2024-02-28T05:45:52;38.67;;;17.83;;
21122;SDS011;10719;48.130;11.630;2024-02-28T05:48:18;32.45;;;15.88;;
21122;SDS011;10719;48.130;11.630;2024-02-28T05:50:43;36.70;;;16.42;;
21122;SDS011;10719;48.130;11.630;2024-02-28T05:53:09;33.20;;;16.10;;
21122;SDS011;10719;48.130;11.630;2024-02-28T05:55:35;35.67;;;15.30;;
21122;SDS011;10719;48.130;11.630;2024-02-28T05:58:00;34.25;;;16.50;;
21122;SDS011;10719;48.130;11.630;2024-02-28T06:00:26;35.00;;;16.70;;
21122;SDS011;10719;48.130;11.630;2024-02-28T06:02:53;34.60;;;17.02;;
21122;SDS011;10719;48.130;11.630;2024-02-28T06:05:19;35.95;;;15.88;;
21122;SDS011;10719;48.130;11.630;2024-02-28T06:07:44;34.05;;;16.40;;
21122;SDS011;10719;48.130;11.630;2024-02-28T06:10:10;36.03;;;17.73;;
21122;SDS011;10719;48.130;11.630;2024-02-28T06:12:36;38.83;;;17.80;;
21122;SDS011;10719;48.130;11.630;2024-02-28T06:15:01;37.97;;;16.35;;
21122;SDS011;10719;48.130;11.630;2024-02-28T06:17:28;35.08;;;17.48;;
21122;SDS011;10719;48.130;11.630;2024-02-28T06:19:54;39.92;;;18.13;;
21122;SDS011;10719;48.130;11.630;2024-02-28T06:22:19;37.40;;;18.30;;
21122;SDS011;10719;48.130;11.630;2024-02-28T06:24:45;35.92;;;17.88;;
21122;SDS011;10719;48.130;11.630;2024-02-28T06:27:11;38.90;;;18.15;;
21122;SDS011;10719;48.130;11.630;2024-02-28T06:29:38;34.78;;;17.05;;
21122;SDS011;10719;48.130;11.630;2024-02-28T06:32:07;34.33;;;17.15;;
21122;SDS011;10719;48.130;11.630;2024-02-28T06:34:33;35.15;;;17.00;;
21122;SDS011;10719;48.130;11.630;2024-02-28T06:36:59;35.90;;;17.38;;
21122;SDS011;10719;48.130;11.630;2024-02-28T06:39:24;37.95;;;17.95;;
21122;SDS011;10719;48.130;11.630;2024-02-28T06:41:50;37.92;;;16.35;;
21122;SDS011;10719;48.130;11.630;2024-02-28T06:44:17;39.90;;;18.45;;
21122;SDS011;10719;48.130;11.630;2024-02-28T06:46:44;39.15;;;17.00;;
21122;SDS011;10719;48.130;11.630;2024-02-28T06:49:09;34.65;;;16.25;;
21122;SDS011;10719;48.130;11.630;2024-02-28T06:51:35;38.28;;;17.67;;
21122;SDS011;10719;48.130;11.630;2024-02-28T06:54:00;37.72;;;17.42;;
21122;SDS011;10719;48.130;11.630;2024-02-28T06:56:26;33.53;;;16.55;;
21122;SDS011;10719;48.130;11.630;2024-02-28T06:58:52;37.53;;;17.17;;
21122;SDS011;10719;48.130;11.630;2024-02-28T07:01:17;38.58;;;17.08;;
21122;SDS011;10719;48.130;11.630;2024-02-28T07:03:43;33.58;;;16.42;;
21122;SDS011;10719;48.130;11.630;2024-02-28T07:06:09;39.17;;;16.98;;
21122;SDS011;10719;48.130;11.630;2024-02-28T07:08:36;38.78;;;17.58;;
21122;SDS011;10719;48.130;11.630;2024-02-28T07:11:02;33.30;;;16.10;;
21122;SDS011;10719;48.130;11.630;2024-02-28T07:13:28;36.47;;;17.85;;
21122;SDS011;10719;48.130;11.630;2024-02-28T07:15:54;32.85;;;16.60;;
21122;SDS011;10719;48.130;11.630;2024-02-28T07:18:19;35.03;;;15.80;;
21122;SDS011;10719;48.130;11.630;2024-02-28T07:20:45;35.78;;;16.10;;
21122;SDS011;10719;48.130;11.630;2024-02-28T07:23:11;32.78;;;16.25;;
21122;SDS011;10719;48.130;11.630;2024-02-28T07:25:37;36.90;;;16.50;;
21122;SDS011;10719;48.130;11.630;2024-02-28T07:28:03;40.15;;;18.50;;
21122;SDS011;10719;48.130;11.630;2024-02-28T07:30:29;41.67;;;17.92;;
21122;SDS011;10719;48.130;11.630;2024-02-28T07:32:55;40.22;;;18.63;;
21122;SDS011;10719;48.130;11.630;2024-02-28T07:35:21;34.55;;;16.33;;
21122;SDS011;10719;48.130;11.630;2024-02-28T07:37:48;36.30;;;16.60;;
21122;SDS011;10719;48.130;11.630;2024-02-28T07:40:14;41.03;;;17.65;;
21122;SDS011;10719;48.130;11.630;2024-02-28T07:42:40;41.20;;;18.33;;
21122;SDS011;10719;48.130;11.630;2024-02-28T07:45:06;36.97;;;17.25;;
21122;SDS011;10719;48.130;11.630;2024-02-28T07:47:33;34.50;;;16.98;;
21122;SDS011;10719;48.130;11.630;2024-02-28T07:49:59;39.13;;;17.60;;
21122;SDS011;10719;48.130;11.630;2024-02-28T07:52:24;38.15;;;17.33;;
21122;SDS011;10719;48.130;11.630;2024-02-28T07:54:50;38.25;;;16.25;;
21122;SDS011;10719;48.130;11.630;2024-02-28T07:57:17;37.90;;;17.40;;
21122;SDS011;10719;48.130;11.630;2024-02-28T07:59:43;37.45;;;17.70;;
21122;SDS011;10719;48.130;11.630;2024-02-28T08:02:08;42.20;;;18.08;;
21122;SDS011;10719;48.130;11.630;2024-02-28T08:04:36;36.67;;;16.75;;
21122;SDS011;10719;48.130;11.630;2024-02-28T08:07:02;36.72;;;16.77;;
21122;SDS011;10719;48.130;11.630;2024-02-28T08:09:28;38.97;;;16.88;;
21122;SDS011;10719;48.130;11.630;2024-02-28T08:11:54;40.75;;;18.02;;
21122;SDS011;10719;48.130;11.630;2024-02-28T08:14:20;41.08;;;18.77;;
21122;SDS011;10719;48.130;11.630;2024-02-28T08:16:46;37.55;;;17.33;;
21122;SDS011;10719;48.130;11.630;2024-02-28T08:19:11;41.60;;;17.80;;
21122;SDS011;10719;48.130;11.630;2024-02-28T08:21:37;42.50;;;18.73;;
21122;SDS011;10719;48.130;11.630;2024-02-28T08:24:02;41.40;;;17.80;;
21122;SDS011;10719;48.130;11.630;2024-02-28T08:26:30;38.05;;;17.75;;
21122;SDS011;10719;48.130;11.630;2024-02-28T08:28:56;41.05;;;18.08;;
21122;SDS011;10719;48.130;11.630;2024-02-28T08:31:22;38.90;;;17.85;;
21122;SDS011;10719;48.130;11.630;2024-02-28T08:33:47;42.00;;;20.17;;
21122;SDS011;10719;48.130;11.630;2024-02-28T08:36:13;38.97;;;18.58;;
21122;SDS011;10719;48.130;11.630;2024-02-28T08:38:40;36.67;;;18.58;;
21122;SDS011;10719;48.130;11.630;2024-02-28T08:41:06;37.60;;;18.73;;
21122;SDS011;10719;48.130;11.630;2024-02-28T08:43:33;42.70;;;19.58;;
21122;SDS011;10719;48.130;11.630;2024-02-28T08:46:02;40.67;;;17.65;;
21122;SDS011;10719;48.130;11.630;2024-02-28T08:48:28;41.38;;;18.60;;
21122;SDS011;10719;48.130;11.630;2024-02-28T08:50:54;37.33;;;18.00;;
21122;SDS011;10719;48.130;11.630;2024-02-28T08:53:19;40.47;;;18.65;;
21122;SDS011;10719;48.130;11.630;2024-02-28T08:55:45;42.28;;;18.55;;
21122;SDS011;10719;48.130;11.630;2024-02-28T08:58:11;43.22;;;19.35;;
21122;SDS011;10719;48.130;11.630;2024-02-28T09:00:37;38.45;;;18.70;;
21122;SDS011;10719;48.130;11.630;2024-02-28T09:03:03;39.97;;;18.58;;
21122;SDS011;10719;48.130;11.630;2024-02-28T09:05:29;39.58;;;17.85;;
21122;SDS011;10719;48.130;11.630;2024-02-28T09:07:55;37.90;;;19.10;;
21122;SDS011;10719;48.130;11.630;2024-02-28T09:10:22;38.33;;;17.63;;
21122;SDS011;10719;48.130;11.630;2024-02-28T09:12:49;40.20;;;18.88;;
21122;SDS011;10719;48.130;11.630;2024-02-28T09:15:15;41.72;;;19.75;;
21122;SDS011;10719;48.130;11.630;2024-02-28T09:17:41;36.10;;;17.05;;
21122;SDS011;10719;48.130;11.630;2024-02-28T09:20:07;41.95;;;18.13;;
21122;SDS011;10719;48.130;11.630;2024-02-28T09:22:33;35.90;;;17.33;;
21122;SDS011;10719;48.130;11.630;2024-02-28T09:24:59;40.85;;;18.73;;
21122;SDS011;10719;48.130;11.630;2024-02-28T09:27:28;41.08;;;18.98;;
21122;SDS011;10719;48.130;11.630;2024-02-28T09:29:54;41.00;;;19.23;;
21122;SDS011;10719;48.130;11.630;2024-02-28T09:32:20;44.30;;;20.20;;
21122;SDS011;10719;48.130;11.630;2024-02-28T09:34:46;41.15;;;19.40;;
21122;SDS011;10719;48.130;11.630;2024-02-28T09:37:11;40.30;;;18.33;;
21122;SDS011;10719;48.130;11.630;2024-02-28T09:39:40;45.42;;;17.92;;
21122;SDS011;10719;48.130;11.630;2024-02-28T09:42:06;42.88;;;20.52;;
21122;SDS011;10719;48.130;11.630;2024-02-28T09:44:33;44.25;;;20.45;;
21122;SDS011;10719;48.130;11.630;2024-02-28T09:47:01;43.22;;;19.95;;
21122;SDS011;10719;48.130;11.630;2024-02-28T09:49:26;43.30;;;19.60;;
21122;SDS011;10719;48.130;11.630;2024-02-28T09:51:53;41.22;;;20.13;;
21122;SDS011;10719;48.130;11.630;2024-02-28T09:54:22;48.33;;;21.20;;
21122;SDS011;10719;48.130;11.630;2024-02-28T09:56:47;41.45;;;17.85;;
21122;SDS011;10719;48.130;11.630;2024-02-28T09:59:17;40.42;;;19.83;;
21122;SDS011;10719;48.130;11.630;2024-02-28T10:01:44;42.63;;;19.75;;
21122;SDS011;10719;48.130;11.630;2024-02-28T10:04:14;40.65;;;19.13;;
21122;SDS011;10719;48.130;11.630;2024-02-28T10:06:40;52.25;;;21.17;;
21122;SDS011;10719;48.130;11.630;2024-02-28T10:09:06;44.38;;;21.17;;
21122;SDS011;10719;48.130;11.630;2024-02-28T10:11:32;41.78;;;20.85;;
21122;SDS011;10719;48.130;11.630;2024-02-28T10:14:00;46.33;;;20.10;;
21122;SDS011;10719;48.130;11.630;2024-02-28T10:16:26;42.17;;;19.63;;
21122;SDS011;10719;48.130;11.630;2024-02-28T10:18:52;40.47;;;19.40;;
21122;SDS011;10719;48.130;11.630;2024-02-28T10:21:18;41.83;;;19.73;;
21122;SDS011;10719;48.130;11.630;2024-02-28T10:23:44;41.38;;;20.00;;
21122;SDS011;10719;48.130;11.630;2024-02-28T10:26:10;41.28;;;19.13;;
21122;SDS011;10719;48.130;11.630;2024-02-28T10:28:37;39.22;;;19.10;;
21122;SDS011;10719;48.130;11.630;2024-02-28T10:31:04;45.65;;;20.13;;
21122;SDS011;10719;48.130;11.630;2024-02-28T10:33:31;40.17;;;19.80;;
21122;SDS011;10719;48.130;11.630;2024-02-28T10:35:58;40.17;;;19.38;;
21122;SDS011;10719;48.130;11.630;2024-02-28T10:38:24;39.22;;;19.90;;
21122;SDS011;10719;48.130;11.630;2024-02-28T10:40:52;37.38;;;17.80;;
21122;SDS011;10719;48.130;11.630;2024-02-28T10:43:19;38.75;;;17.38;;
21122;SDS011;10719;48.130;11.630;2024-02-28T10:45:45;37.42;;;16.40;;
21122;SDS011;10719;48.130;11.630;2024-02-28T10:48:11;39.97;;;17.40;;
21122;SDS011;10719;48.130;11.630;2024-02-28T10:50:40;37.50;;;18.05;;
21122;SDS011;10719;48.130;11.630;2024-02-28T10:53:09;37.60;;;16.80;;
21122;SDS011;10719;48.130;11.630;2024-02-28T10:55:41;37.45;;;16.23;;
21122;SDS011;10719;48.130;11.630;2024-02-28T10:58:09;39.53;;;15.95;;
21122;SDS011;10719;48.130;11.630;2024-02-28T11:00:39;35.83;;;16.83;;
21122;SDS011;10719;48.130;11.630;2024-02-28T11:03:12;30.13;;;15.10;;
21122;SDS011;10719;48.130;11.630;2024-02-28T11:05:41;37.47;;;17.45;;
21122;SDS011;10719;48.130;11.630;2024-02-28T11:08:11;38.10;;;17.65;;
21122;SDS011;10719;48.130;11.630;2024-02-28T11:10:45;36.58;;;17.30;;
21122;SDS011;10719;48.130;11.630;2024-02-28T11:13:21;38.70;;;17.40;;
21122;SDS011;10719;48.130;11.630;2024-02-28T11:15:47;39.60;;;17.33;;
21122;SDS011;10719;48.130;11.630;2024-02-28T11:18:13;32.22;;;16.85;;
21122;SDS011;10719;48.130;11.630;2024-02-28T11:20:38;35.55;;;15.68;;
21122;SDS011;10719;48.130;11.630;2024-02-28T11:23:07;29.50;;;16.08;;
21122;SDS011;10719;48.130;11.630;2024-02-28T11:25:34;35.15;;;16.60;;
21122;SDS011;10719;48.130;11.630;2024-02-28T11:28:00;34.25;;;17.33;;
21122;SDS011;10719;48.130;11.630;2024-02-28T11:30:26;36.10;;;17.02;;
21122;SDS011;10719;48.130;11.630;2024-02-28T11:32:52;36.70;;;17.73;;
21122;SDS011;10719;48.130;11.630;2024-02-28T11:35:19;34.72;;;16.90;;
21122;SDS011;10719;48.130;11.630;2024-02-28T11:37:47;36.60;;;17.33;;
21122;SDS011;10719;48.130;11.630;2024-02-28T11:40:14;38.10;;;17.27;;
21122;SDS011;10719;48.130;11.630;2024-02-28T11:42:39;33.30;;;15.55;;
21122;SDS011;10719;48.130;11.630;2024-02-28T11:45:05;39.30;;;17.30;;
21122;SDS011;10719;48.130;11.630;2024-02-28T11:47:35;36.08;;;17.60;;
21122;SDS011;10719;48.130;11.630;2024-02-28T11:50:00;47.95;;;19.00;;
21122;SDS011;10719;48.130;11.630;2024-02-28T11:52:28;34.10;;;17.02;;
21122;SDS011;10719;48.130;11.630;2024-02-28T11:54:55;34.70;;;17.08;;
21122;SDS011;10719;48.130;11.630;2024-02-28T11:57:21;40.25;;;19.45;;
21122;SDS011;10719;48.130;11.630;2024-02-28T11:59:47;33.90;;;17.90;;
21122;SDS011;10719;48.130;11.630;2024-02-28T12:02:15;41.35;;;18.73;;
21122;SDS011;10719;48.130;11.630;2024-02-28T12:04:44;38.97;;;19.20;;
21122;SDS011;10719;48.130;11.630;2024-02-28T12:07:13;39.92;;;17.30;;
21122;SDS011;10719;48.130;11.630;2024-02-28T12:09:39;34.20;;;17.13;;
21122;SDS011;10719;48.130;11.630;2024-02-28T12:12:06;36.70;;;18.20;;
21122;SDS011;10719;48.130;11.630;2024-02-28T12:14:36;33.63;;;17.73;;
21122;SDS011;10719;48.130;11.630;2024-02-28T12:17:03;39.10;;;17.73;;
21122;SDS011;10719;48.130;11.630;2024-02-28T12:19:29;35.50;;;16.95;;
21122;SDS011;10719;48.130;11.630;2024-02-28T12:21:54;41.47;;;19.25;;
21122;SDS011;10719;48.130;11.630;2024-02-28T12:24:21;37.10;;;19.38;;
21122;SDS011;10719;48.130;11.630;2024-02-28T12:26:47;37.72;;;18.63;;
21122;SDS011;10719;48.130;11.630;2024-02-28T12:29:12;33.88;;;17.45;;
21122;SDS011;10719;48.130;11.630;2024-02-28T12:31:38;40.70;;;18.58;;
21122;SDS011;10719;48.130;11.630;2024-02-28T12:34:04;34.85;;;17.95;;
21122;SDS011;10719;48.130;11.630;2024-02-28T12:36:30;39.42;;;17.90;;
21122;SDS011;10719;48.130;11.630;2024-02-28T12:38:57;36.20;;;18.08;;
21122;SDS011;10719;48.130;11.630;2024-02-28T12:41:24;34.78;;;18.20;;
21122;SDS011;10719;48.130;11.630;2024-02-28T12:43:51;34.10;;;17.20;;
21122;SDS011;10719;48.130;11.630;2024-02-28T12:46:16;32.92;;;16.58;;
21122;SDS011;10719;48.130;11.630;2024-02-28T12:48:42;37.63;;;17.55;;
21122;SDS011;10719;48.130;11.630;2024-02-28T12:51:10;34.00;;;15.65;;
21122;SDS011;10719;48.130;11.630;2024-02-28T12:53:38;39.97;;;20.67;;
21122;SDS011;10719;48.130;11.630;2024-02-28T12:56:05;35.08;;;17.85;;
21122;SDS011;10719;48.130;11.630;2024-02-28T12:58:30;37.10;;;16.63;;
21122;SDS011;10719;48.130;11.630;2024-02-28T13:00:57;37.67;;;17.25;;
21122;SDS011;10719;48.130;11.630;2024-02-28T13:03:22;35.63;;;16.15;;
21122;SDS011;10719;48.130;11.630;2024-02-28T13:05:48;33.92;;;16.67;;
21122;SDS011;10719;48.130;11.630;2024-02-28T13:08:14;39.90;;;17.20;;
21122;SDS011;10719;48.130;11.630;2024-02-28T13:10:40;35.92;;;16.83;;
21122;SDS011;10719;48.130;11.630;2024-02-28T13:13:06;36.75;;;16.92;;
21122;SDS011;10719;48.130;11.630;2024-02-28T13:15:32;34.22;;;15.68;;
21122;SDS011;10719;48.130;11.630;2024-02-28T13:17:59;33.75;;;16.60;;
21122;SDS011;10719;48.130;11.630;2024-02-28T13:20:26;32.00;;;15.88;;
21122;SDS011;10719;48.130;11.630;2024-02-28T13:22:51;34.63;;;17.10;;
21122;SDS011;10719;48.130;11.630;2024-02-28T13:25:17;35.22;;;15.13;;
21122;SDS011;10719;48.130;11.630;2024-02-28T13:27:44;32.05;;;15.68;;
21122;SDS011;10719;48.130;11.630;2024-02-28T13:30:11;34.17;;;15.77;;
21122;SDS011;10719;48.130;11.630;2024-02-28T13:32:37;31.73;;;15.82;;
21122;SDS011;10719;48.130;11.630;2024-02-28T13:35:03;32.83;;;14.65;;
21122;SDS011;10719;48.130;11.630;2024-02-28T13:37:28;34.53;;;16.08;;
21122;SDS011;10719;48.130;11.630;2024-02-28T13:39:54;31.00;;;15.38;;
21122;SDS011;10719;48.130;11.630;2024-02-28T13:42:21;33.25;;;15.57;;
21122;SDS011;10719;48.130;11.630;2024-02-28T13:44:49;32.47;;;15.15;;
21122;SDS011;10719;48.130;11.630;2024-02-28T13:47:15;33.95;;;16.33;;
21122;SDS011;10719;48.130;11.630;2024-02-28T13:49:40;30.20;;;15.07;;
21122;SDS011;10719;48.130;11.630;2024-02-28T13:52:06;32.63;;;16.60;;
21122;SDS011;10719;48.130;11.630;2024-02-28T13:54:32;32.30;;;15.45;;
21122;SDS011;10719;48.130;11.630;2024-02-28T13:56:57;37.22;;;15.82;;
21122;SDS011;10719;48.130;11.630;2024-02-28T13:59:23;32.55;;;15.60;;
21122;SDS011;10719;48.130;11.630;2024-02-28T14:01:49;30.25;;;14.35;;
21122;SDS011;10719;48.130;11.630;2024-02-28T14:04:15;31.25;;;15.07;;